createdAt,value
2023-02-11T00:02:04.833Z,20.83
2023-02-11T00:07:11.606Z,20.90
2023-02-11T00:09:44.453Z,19.47
2023-02-11T00:12:19.467Z,21.52
2023-02-11T00:17:27.661Z,24.63
2023-02-11T00:20:00.516Z,23.75
2023-02-11T00:22:34.718Z,23.38
2023-02-11T00:25:07.877Z,26.35
2023-02-11T00:27:40.999Z,22.77
2023-02-11T00:30:14.294Z,18.80
2023-02-11T00:32:47.086Z,22.45
2023-02-11T00:35:19.845Z,22.23
2023-02-11T00:37:55.981Z,18.02
2023-02-11T00:40:29.160Z,22.65
2023-02-11T00:43:02.160Z,23.00
2023-02-11T00:45:34.961Z,24.40
2023-02-11T00:48:08.071Z,23.65
2023-02-11T00:50:40.894Z,21.25
2023-02-11T00:53:15.110Z,18.45
2023-02-11T00:55:48.217Z,16.70
2023-02-11T00:58:22.451Z,20.77
2023-02-11T01:00:55.340Z,18.48
2023-02-11T01:03:28.125Z,21.60
2023-02-11T01:06:01.400Z,20.73
2023-02-11T01:08:35.544Z,22.70
2023-02-11T01:11:13.504Z,19.17
2023-02-11T01:13:48.037Z,17.65
2023-02-11T01:16:22.451Z,17.42
2023-02-11T01:18:55.846Z,16.08
2023-02-11T01:21:28.806Z,18.00
2023-02-11T01:24:02.951Z,19.80
2023-02-11T01:26:35.795Z,20.20
2023-02-11T01:29:09.281Z,20.65
2023-02-11T01:31:42.147Z,16.98
2023-02-11T01:34:15.478Z,18.23
2023-02-11T01:36:48.272Z,15.95
2023-02-11T01:39:22.351Z,16.45
2023-02-11T01:41:56.058Z,16.48
2023-02-11T01:44:32.934Z,17.75
2023-02-11T01:47:06.511Z,14.60
2023-02-11T01:49:43.271Z,15.77
2023-02-11T01:52:22.110Z,18.38
2023-02-11T01:55:17.828Z,13.40
2023-02-11T01:57:56.275Z,18.77
2023-02-11T02:00:35.546Z,15.95
2023-02-11T02:06:24.014Z,13.40
2023-02-11T02:09:02.187Z,15.73
2023-02-11T02:11:37.406Z,16.15
2023-02-11T02:14:10.183Z,18.23
2023-02-11T02:16:43.191Z,15.52
2023-02-11T02:19:48.652Z,19.48
2023-02-11T02:22:59.141Z,11.68
2023-02-11T02:25:59.739Z,16.58
2023-02-11T02:28:57.974Z,16.60
2023-02-11T02:31:51.350Z,15.75
2023-02-11T02:34:31.871Z,15.13
2023-02-11T02:37:11.306Z,16.33
2023-02-11T02:39:47.481Z,14.80
2023-02-11T02:42:21.315Z,16.48
2023-02-11T02:44:54.413Z,17.63
2023-02-11T02:47:27.466Z,16.60
2023-02-11T02:50:01.880Z,17.30
2023-02-11T02:52:40.243Z,18.05
2023-02-11T02:55:34.474Z,13.15
2023-02-11T02:58:31.205Z,13.65
2023-02-11T03:01:15.084Z,17.85
2023-02-11T03:03:53.092Z,14.35
2023-02-11T03:06:34.635Z,13.63
2023-02-11T03:09:11.863Z,17.10
2023-02-11T03:11:44.674Z,14.13
2023-02-11T03:14:20.284Z,14.43
2023-02-11T03:16:57.007Z,15.00
2023-02-11T03:19:35.402Z,16.05
2023-02-11T03:22:15.501Z,14.65
2023-02-11T03:24:49.353Z,15.45
2023-02-11T03:27:28.354Z,13.40
2023-02-11T03:30:11.996Z,13.82
2023-02-11T03:32:52.295Z,14.20
2023-02-11T03:35:32.857Z,15.10
2023-02-11T03:38:10.213Z,13.93
2023-02-11T03:40:45.544Z,15.25
2023-02-11T03:43:22.829Z,13.32
2023-02-11T03:45:57.397Z,10.70
2023-02-11T03:48:34.184Z,14.48
2023-02-11T03:51:10.091Z,14.13
2023-02-11T03:53:47.723Z,16.10
2023-02-11T03:56:24.541Z,13.73
2023-02-11T03:58:57.806Z,14.57
2023-02-11T04:01:30.726Z,15.60
2023-02-11T04:04:04.956Z,16.23
2023-02-11T04:06:38.506Z,15.07
2023-02-11T04:09:13.478Z,15.15
2023-02-11T04:14:18.781Z,17.60
2023-02-11T04:16:51.581Z,11.82
2023-02-11T04:19:24.354Z,11.52
2023-02-11T04:21:57.129Z,12.70
2023-02-11T04:24:31.425Z,15.07
2023-02-11T04:27:04.401Z,14.77
2023-02-11T04:29:37.714Z,13.27
2023-02-11T04:32:11.684Z,14.13
2023-02-11T04:34:44.725Z,13.10
2023-02-11T04:37:17.539Z,17.92
2023-02-11T04:39:51.691Z,13.68
2023-02-11T04:42:25.067Z,13.57
2023-02-11T04:44:58.026Z,17.00
2023-02-11T04:47:30.889Z,18.02
2023-02-11T04:50:03.763Z,18.15
2023-02-11T04:52:36.473Z,13.15
2023-02-11T04:55:10.741Z,16.35
2023-02-11T04:57:43.602Z,14.73
2023-02-11T05:00:17.416Z,14.10
2023-02-11T05:02:50.260Z,15.98
2023-02-11T05:05:23.039Z,18.10
2023-02-11T05:07:55.835Z,16.88
2023-02-11T05:10:29.933Z,17.25
2023-02-11T05:13:02.991Z,13.30
2023-02-11T05:15:36.050Z,19.40
2023-02-11T05:18:08.844Z,14.82
2023-02-11T05:20:42.039Z,17.30
2023-02-11T05:23:14.849Z,16.65
2023-02-11T05:25:49.242Z,17.17
2023-02-11T05:28:22.156Z,15.15
2023-02-11T05:30:55.236Z,18.27
2023-02-11T05:33:28.570Z,18.65
2023-02-11T05:36:02.183Z,12.68
2023-02-11T05:38:35.481Z,17.10
2023-02-11T05:41:09.889Z,18.27
2023-02-11T05:43:42.641Z,15.82
2023-02-11T05:46:15.451Z,15.60
2023-02-11T05:48:48.338Z,21.02
2023-02-11T05:51:21.130Z,19.48
2023-02-11T05:53:54.196Z,17.58
2023-02-11T05:56:28.396Z,16.92
2023-02-11T05:59:01.653Z,17.58
2023-02-11T06:01:34.483Z,19.27
2023-02-11T06:04:07.382Z,18.67
2023-02-11T06:06:40.198Z,21.15
2023-02-11T06:09:12.943Z,17.92
2023-02-11T06:11:47.368Z,19.70
2023-02-11T06:14:20.401Z,19.27
2023-02-11T06:16:53.219Z,21.35
2023-02-11T06:19:26.081Z,19.50
2023-02-11T06:21:58.884Z,20.70
2023-02-11T06:24:51.405Z,17.92
2023-02-11T06:27:26.671Z,18.70
2023-02-11T06:29:59.696Z,19.00
2023-02-11T06:32:44.455Z,16.25
2023-02-11T06:35:18.151Z,17.27
2023-02-11T06:37:53.713Z,18.08
2023-02-11T06:40:26.469Z,22.27
2023-02-11T06:43:00.646Z,19.90
2023-02-11T06:45:33.637Z,18.13
2023-02-11T06:48:06.910Z,17.38
2023-02-11T06:50:40.086Z,20.08
2023-02-11T06:53:12.965Z,20.88
2023-02-11T06:55:45.804Z,20.95
2023-02-11T06:58:19.992Z,17.25
2023-02-11T07:00:53.651Z,19.88
2023-02-11T07:03:26.796Z,15.82
2023-02-11T07:05:59.596Z,22.48
2023-02-11T07:08:32.449Z,19.23
2023-02-11T07:11:10.529Z,22.42
2023-02-11T07:13:45.245Z,20.48
2023-02-11T07:16:19.036Z,18.42
2023-02-11T07:18:52.148Z,19.77
2023-02-11T07:21:25.341Z,20.60
2023-02-11T07:23:58.234Z,22.52
2023-02-11T07:26:31.016Z,20.77
2023-02-11T07:29:05.578Z,19.58
2023-02-11T07:31:38.424Z,20.33
2023-02-11T07:34:12.064Z,17.15
2023-02-11T07:36:45.047Z,22.30
2023-02-11T07:39:17.907Z,22.30
2023-02-11T07:41:50.705Z,21.10
2023-02-11T07:44:25.208Z,18.30
2023-02-11T07:46:58.197Z,21.80
2023-02-11T07:49:31.001Z,22.27
2023-02-11T07:52:03.809Z,23.05
2023-02-11T07:54:36.624Z,23.83
2023-02-11T07:57:09.510Z,25.65
2023-02-11T07:59:43.993Z,24.95
2023-02-11T08:02:16.965Z,23.38
2023-02-11T08:04:50.655Z,28.05
2023-02-11T08:07:23.491Z,22.23
2023-02-11T08:09:56.724Z,21.25
2023-02-11T08:12:29.512Z,22.95
2023-02-11T08:15:03.940Z,22.05
2023-02-11T08:17:36.778Z,21.00
2023-02-11T08:20:10.348Z,19.20
2023-02-11T08:22:43.211Z,23.25
2023-02-11T08:25:16.180Z,26.73
2023-02-11T08:27:48.931Z,20.08
2023-02-11T08:30:25.052Z,23.63
2023-02-11T08:32:59.004Z,15.20
2023-02-11T08:35:32.973Z,48.35
2023-02-11T08:38:05.714Z,23.52
2023-02-11T08:40:39.894Z,26.95
2023-02-11T08:43:12.633Z,31.23
2023-02-11T08:45:47.081Z,31.30
2023-02-11T08:48:19.890Z,22.95
2023-02-11T08:50:52.694Z,18.63
2023-02-11T08:53:26.197Z,24.15
2023-02-11T08:55:59.284Z,23.73
2023-02-11T08:58:32.054Z,27.73
2023-02-11T09:01:11.452Z,21.00
2023-02-11T09:03:44.372Z,17.90
2023-02-11T09:06:18.575Z,31.00
2023-02-11T09:08:53.903Z,27.55
2023-02-11T09:11:29.446Z,22.38
2023-02-11T09:14:03.235Z,24.42
2023-02-11T09:16:37.618Z,22.15
2023-02-11T09:19:10.733Z,22.88
2023-02-11T09:21:43.708Z,24.20
2023-02-11T09:24:16.676Z,23.77
2023-02-11T09:26:50.042Z,23.17
2023-02-11T09:29:22.852Z,25.67
2023-02-11T09:31:59.122Z,24.23
2023-02-11T09:34:32.045Z,23.08
2023-02-11T09:37:05.117Z,23.13
2023-02-11T09:39:37.935Z,21.58
2023-02-11T09:42:40.695Z,24.40
2023-02-11T09:45:18.496Z,27.98
2023-02-11T09:47:56.895Z,22.15
2023-02-11T09:50:33.510Z,26.20
2023-02-11T09:53:12.364Z,25.92
2023-02-11T09:55:48.895Z,27.00
2023-02-11T09:58:26.740Z,28.38
2023-02-11T10:01:07.838Z,26.23
2023-02-11T10:03:55.659Z,26.08
2023-02-11T10:06:40.150Z,24.27
2023-02-11T10:09:29.738Z,26.30
2023-02-11T10:12:17.097Z,24.58
2023-02-11T10:15:02.404Z,24.27
2023-02-11T10:20:26.353Z,23.25
2023-02-11T10:23:02.237Z,24.08
2023-02-11T10:25:38.113Z,25.85
2023-02-11T10:28:15.297Z,25.65
2023-02-11T10:30:56.759Z,26.17
2023-02-11T10:33:35.531Z,25.33
2023-02-11T10:36:12.100Z,25.88
2023-02-11T10:38:45.425Z,24.33
2023-02-11T10:41:23.622Z,23.83
2023-02-11T10:43:56.768Z,26.35
2023-02-11T10:46:34.277Z,25.05
2023-02-11T10:49:07.293Z,26.90
2023-02-11T10:51:41.785Z,30.92
2023-02-11T10:54:21.217Z,22.30
2023-02-11T10:57:00.563Z,23.83
2023-02-11T10:59:38.320Z,24.95
2023-02-11T11:02:23.423Z,22.38
2023-02-11T11:04:58.197Z,26.27
2023-02-11T11:07:52.454Z,27.97
2023-02-11T11:10:32.856Z,16.17
2023-02-11T11:13:30.832Z,20.10
2023-02-11T11:16:23.155Z,26.80
2023-02-11T11:19:17.117Z,23.45
2023-02-11T11:21:52.751Z,22.23
2023-02-11T11:24:34.271Z,22.80
2023-02-11T11:27:07.700Z,25.02
2023-02-11T11:29:45.861Z,20.38
2023-02-11T11:32:23.355Z,25.33
2023-02-11T11:34:58.299Z,25.83
2023-02-11T11:40:22.688Z,25.50
2023-02-11T11:43:08.544Z,23.38
2023-02-11T11:45:53.021Z,22.67
2023-02-11T11:48:31.237Z,22.77
2023-02-11T11:54:14.714Z,24.83
2023-02-11T11:57:19.126Z,22.98
2023-02-11T11:59:51.930Z,20.92
2023-02-11T12:02:48.720Z,25.23
2023-02-11T12:05:27.718Z,23.95
2023-02-11T12:08:10.663Z,18.95
2023-02-11T12:11:03.824Z,21.35
2023-02-11T12:13:49.904Z,18.40
2023-02-11T12:16:34.528Z,20.60
2023-02-11T12:22:31.567Z,21.15
2023-02-11T12:25:22.743Z,19.65
2023-02-11T12:28:06.827Z,20.48
2023-02-11T12:31:01.310Z,18.25
2023-02-11T12:33:51.044Z,20.60
2023-02-11T12:36:37.998Z,16.55
2023-02-11T12:39:27.322Z,23.30
2023-02-11T12:45:51.941Z,16.73
2023-02-11T12:51:21.717Z,16.80
2023-02-11T12:54:18.422Z,18.40
2023-02-11T12:56:55.447Z,19.42
2023-02-11T12:59:39.340Z,15.15
2023-02-11T13:02:21.572Z,19.08
2023-02-11T13:04:58.189Z,17.23
2023-02-11T13:14:25.411Z,19.70
2023-02-11T13:17:32.358Z,20.02
2023-02-11T13:20:19.504Z,18.92
2023-02-11T13:23:00.274Z,16.08
2023-02-11T13:25:44.728Z,19.30
2023-02-11T13:28:42.480Z,20.00
2023-02-11T13:31:16.738Z,16.23
2023-02-11T13:33:50.450Z,14.63
2023-02-11T13:36:28.615Z,18.15
2023-02-11T13:39:39.865Z,18.00
2023-02-11T13:42:18.222Z,18.58
2023-02-11T13:44:52.257Z,17.65
2023-02-11T13:50:27.357Z,19.23
2023-02-11T13:53:06.177Z,19.85
2023-02-11T13:55:43.137Z,18.50
2023-02-11T14:07:46.232Z,23.00
2023-02-11T14:10:52.405Z,20.35
2023-02-11T14:13:26.820Z,21.08
2023-02-11T14:16:08.945Z,21.20
2023-02-11T14:22:03.458Z,18.33
2023-02-11T14:27:57.023Z,22.77
2023-02-11T14:30:47.131Z,22.63
2023-02-11T14:36:44.474Z,23.35
2023-02-11T14:39:26.770Z,21.38
2023-02-11T14:42:03.572Z,22.90
2023-02-11T14:44:37.940Z,23.95
2023-02-11T14:47:18.488Z,23.60
2023-02-11T14:49:51.590Z,19.75
2023-02-11T14:55:57.475Z,26.27
2023-02-11T14:58:32.045Z,26.40
2023-02-11T15:01:23.494Z,25.95
2023-02-11T15:03:58.178Z,22.58
2023-02-11T15:06:33.375Z,24.30
2023-02-11T15:09:14.541Z,22.27
2023-02-11T15:11:49.881Z,18.80
2023-02-11T15:14:26.648Z,22.70
2023-02-11T15:17:05.346Z,23.65
2023-02-11T15:19:42.009Z,22.70
2023-02-11T15:22:20.235Z,22.63
2023-02-11T15:25:00.760Z,22.67
2023-02-11T15:27:40.357Z,20.02
2023-02-11T15:30:26.690Z,21.42
2023-02-11T15:33:05.716Z,21.20
2023-02-11T15:35:42.268Z,22.80
2023-02-11T15:38:15.373Z,21.80
2023-02-11T15:40:56.717Z,20.25
2023-02-11T15:43:42.974Z,22.40
2023-02-11T15:46:19.709Z,18.05
2023-02-11T15:48:56.586Z,19.05
2023-02-11T15:51:32.873Z,19.25
2023-02-11T15:54:08.815Z,19.52
2023-02-11T15:56:44.713Z,19.13
2023-02-11T15:59:21.752Z,19.95
2023-02-11T16:01:55.956Z,18.98
2023-02-11T16:04:30.216Z,15.35
2023-02-11T16:07:03.146Z,20.80
2023-02-11T16:09:37.632Z,20.58
2023-02-11T16:12:27.003Z,20.83
2023-02-11T16:15:03.768Z,21.80
2023-02-11T16:17:37.177Z,21.20
2023-02-11T16:20:20.437Z,19.20
2023-02-11T16:26:01.316Z,19.15
2023-02-11T16:28:34.769Z,17.67
2023-02-11T16:31:09.554Z,18.20
2023-02-11T16:36:29.382Z,19.27
2023-02-11T16:39:04.037Z,21.00
2023-02-11T16:41:36.812Z,19.52
2023-02-11T16:44:09.791Z,16.58
2023-02-11T16:46:42.846Z,18.65
2023-02-11T16:49:19.197Z,18.25
2023-02-11T16:51:57.335Z,18.92
2023-02-11T16:54:32.266Z,25.15
2023-02-11T16:57:10.202Z,26.83
2023-02-11T16:59:43.246Z,23.38
2023-02-11T17:02:21.191Z,22.83
2023-02-11T17:04:59.179Z,23.20
2023-02-11T17:07:32.511Z,21.25
2023-02-11T17:10:15.139Z,21.70
2023-02-11T17:12:48.892Z,20.27
2023-02-11T17:15:21.723Z,21.48
2023-02-11T17:17:54.487Z,25.90
2023-02-11T17:20:27.781Z,24.50
2023-02-11T17:23:00.665Z,29.35
2023-02-11T17:25:37.152Z,24.23
2023-02-11T17:28:12.020Z,26.02
2023-02-11T17:33:18.808Z,19.08
2023-02-11T17:35:52.015Z,22.67
2023-02-11T17:38:24.986Z,24.02
2023-02-11T17:41:00.373Z,21.75
2023-02-11T17:43:33.294Z,20.30
2023-02-11T17:46:10.670Z,22.45
2023-02-11T17:48:43.513Z,25.20
2023-02-11T17:51:24.100Z,22.88
2023-02-11T17:53:58.579Z,24.80
2023-02-11T17:56:35.801Z,22.27
2023-02-11T17:59:11.106Z,23.88
2023-02-11T18:01:44.627Z,26.33
2023-02-11T18:04:19.978Z,24.33
2023-02-11T18:06:53.464Z,25.05
2023-02-11T18:09:27.054Z,24.33
2023-02-11T18:12:01.182Z,27.25
2023-02-11T18:14:34.915Z,22.53
2023-02-11T18:17:07.865Z,26.83
2023-02-11T18:19:40.720Z,21.25
2023-02-11T18:22:14.312Z,21.08
2023-02-11T18:24:51.815Z,25.50
2023-02-11T18:27:25.898Z,24.23
2023-02-11T18:29:59.394Z,27.45
2023-02-11T18:32:32.858Z,23.67
2023-02-11T18:35:08.731Z,23.33
2023-02-11T18:37:42.452Z,26.92
2023-02-11T18:40:15.366Z,21.42
2023-02-11T18:42:49.530Z,23.40
2023-02-11T18:45:23.783Z,25.43
2023-02-11T18:47:56.663Z,23.38
2023-02-11T18:50:29.467Z,25.80
2023-02-11T18:53:02.247Z,26.85
2023-02-11T18:55:35.155Z,32.40
2023-02-11T18:58:09.440Z,25.63
2023-02-11T19:00:46.379Z,27.67
2023-02-11T19:03:20.323Z,21.80
2023-02-11T19:05:54.509Z,26.38
2023-02-11T19:08:27.477Z,26.23
2023-02-11T19:11:00.272Z,26.67
2023-02-11T19:13:34.720Z,30.00
2023-02-11T19:16:11.377Z,28.92
2023-02-11T19:18:44.580Z,28.45
2023-02-11T19:21:17.436Z,23.83
2023-02-11T19:23:50.361Z,29.73
2023-02-11T19:26:24.794Z,26.60
2023-02-11T19:28:59.725Z,30.42
2023-02-11T19:34:07.309Z,27.75
2023-02-11T19:36:40.133Z,31.15
2023-02-11T19:39:13.454Z,28.58
2023-02-11T19:41:46.332Z,27.65
2023-02-11T19:44:20.494Z,30.58
2023-02-11T19:46:54.642Z,30.07
2023-02-11T19:49:27.823Z,28.45
2023-02-11T19:52:02.354Z,27.90
2023-02-11T19:54:35.192Z,27.13
2023-02-11T19:57:07.930Z,30.02
2023-02-11T20:09:28.893Z,31.63
2023-02-11T20:12:01.691Z,30.27
2023-02-11T20:14:34.479Z,28.42
2023-02-11T20:17:07.279Z,30.23
2023-02-11T20:19:40.047Z,31.95
2023-02-11T20:25:39.854Z,30.70
2023-02-11T20:28:13.893Z,39.47
2023-02-11T20:30:46.729Z,30.63
2023-02-11T20:33:21.978Z,30.52
2023-02-11T20:35:56.280Z,27.70
2023-02-11T20:38:29.301Z,31.58
2023-02-11T21:00:09.561Z,26.47
2023-02-11T21:02:42.365Z,27.75
2023-02-11T21:05:15.454Z,30.70
2023-02-11T21:07:48.292Z,29.45
2023-02-11T21:10:21.520Z,34.25
2023-02-11T21:12:54.620Z,31.23
2023-02-11T21:15:29.073Z,30.48
2023-02-11T21:18:02.236Z,28.88
2023-02-11T21:20:35.297Z,31.88
2023-02-11T21:23:08.248Z,32.95
2023-02-11T21:25:41.370Z,31.38
2023-02-11T21:28:14.811Z,30.17
2023-02-11T21:30:51.585Z,30.88
2023-02-11T21:33:25.916Z,30.48
2023-02-11T21:35:59.862Z,28.67
2023-02-11T21:38:34.693Z,29.63
2023-02-11T21:41:08.285Z,28.58
2023-02-11T21:43:41.109Z,24.92
2023-02-11T21:46:16.617Z,33.22
2023-02-11T21:48:50.906Z,24.65
2023-02-11T21:51:25.955Z,27.75
2023-02-11T21:54:01.005Z,28.50
2023-02-11T21:59:08.089Z,20.30
2023-02-11T22:01:42.317Z,23.63
2023-02-11T22:04:15.420Z,30.30
2023-02-11T22:06:49.203Z,28.77
2023-02-11T22:09:21.984Z,25.95
2023-02-11T22:11:54.824Z,25.60
2023-02-11T22:14:27.911Z,26.42
2023-02-11T22:17:04.319Z,26.27
2023-02-11T22:19:37.439Z,27.83
2023-02-11T22:22:10.540Z,29.10
2023-02-11T22:24:45.382Z,29.50
2023-02-11T22:27:20.266Z,26.77
2023-02-11T22:29:53.334Z,26.05
2023-02-11T22:32:27.526Z,28.38
2023-02-11T22:35:01.464Z,25.40
2023-02-11T22:37:34.301Z,26.73
2023-02-11T22:40:08.449Z,26.42
2023-02-11T22:42:41.369Z,26.17
2023-02-11T22:45:14.286Z,23.83
2023-02-11T22:47:48.443Z,26.75
2023-02-11T22:50:21.228Z,25.50
2023-02-11T22:52:54.054Z,27.85
2023-02-11T22:55:27.407Z,26.02
2023-02-11T22:58:00.191Z,24.58
2023-02-11T23:00:37.756Z,26.08
2023-02-11T23:03:14.065Z,24.77
2023-02-11T23:05:46.847Z,25.58
2023-02-11T23:08:19.707Z,26.30
2023-02-11T23:10:52.551Z,25.65
2023-02-11T23:13:25.500Z,25.48
2023-02-11T23:15:58.377Z,24.33
2023-02-11T23:18:33.111Z,23.95
2023-02-11T23:21:10.145Z,21.05
2023-02-11T23:23:46.096Z,23.10
2023-02-11T23:26:19.386Z,21.10
2023-02-11T23:28:52.365Z,21.90
2023-02-11T23:31:29.025Z,23.35
2023-02-11T23:34:03.421Z,21.73
2023-02-11T23:36:37.198Z,24.08
2023-02-11T23:39:10.052Z,23.10
2023-02-11T23:41:42.857Z,23.98
2023-02-11T23:44:15.710Z,22.98
2023-02-11T23:46:48.515Z,23.77
2023-02-11T23:49:22.674Z,21.25
2023-02-11T23:51:57.594Z,22.40
2023-02-11T23:57:03.209Z,20.40
2023-02-11T23:59:36.011Z,21.98
